Startpagina
METAR-TAF:

METAR-TAF

Vliegvelden :

Productieplatform

P11-b, Nederland

breedte: 52-21-36N, lengte: 3-20-30E, hoogte: 24 m

Actueel weer

Dit bericht is 29 minuten geleden gemaakt, om 07:55 UTC
Wind 18 kt uit het westzuidwesten
Temperatuur 15°C
Vochtigheid 94%
Druk 1022 hPa
Zicht 10 km of meer
Weinig wolken op 3300 ft

METAR: EHPG 190755Z AUTO 25018KT 9999 FEW033 15/14 Q1022 W///H///

Tijdstip: 10:24 (08:24 UTC)


TAF: ontbreekt

Waarnemingen en weersverwachtingen van meer dan 4000 vliegvelden (METAR en TAF).

De beschikbare stations zijn de gele en rode punten op de kaart.

Ga met uw muis naar het station om de naam te zien.

Klik dan om waarnemingen en weersverwachtingen te zien.

kaart wijzigen: klik op de groene knoppen met een zwart kruis om in te zoomen, op de groene knop met een streepje om uit te zoomen of op de groene pijlen voor aangrenzende kaarten.


METAR-TAF: